createdAt,value
2018-06-24T00:00:12.171Z,13.99
2018-06-24T00:02:40.945Z,14.04
2018-06-24T00:05:09.680Z,14.06
2018-06-24T00:07:38.378Z,14.04
2018-06-24T00:10:07.139Z,14.05
2018-06-24T00:12:35.868Z,14.06
2018-06-24T00:15:05.301Z,14.07
2018-06-24T00:17:34.057Z,14.01
2018-06-24T00:20:02.894Z,14.06
2018-06-24T00:22:31.985Z,14.09
2018-06-24T00:25:00.749Z,14.06
2018-06-24T00:27:29.511Z,14.03
2018-06-24T00:29:58.282Z,14.07
2018-06-24T00:32:27.038Z,14.08
2018-06-24T00:34:55.787Z,14.09
2018-06-24T00:37:24.486Z,14.09
2018-06-24T00:39:53.210Z,14.06
2018-06-24T00:42:21.922Z,14.01
2018-06-24T00:44:50.663Z,14.00
2018-06-24T00:47:19.387Z,13.98
2018-06-24T00:49:48.144Z,13.99
2018-06-24T00:52:16.896Z,13.98
2018-06-24T00:54:45.625Z,13.99
2018-06-24T00:57:14.361Z,13.98
2018-06-24T00:59:54.277Z,13.94
2018-06-24T01:02:22.973Z,13.92
2018-06-24T01:04:51.718Z,13.90
2018-06-24T01:07:20.453Z,13.81
2018-06-24T01:09:49.244Z,13.74
2018-06-24T01:12:17.921Z,13.61
2018-06-24T01:14:46.697Z,13.48
2018-06-24T01:17:15.425Z,13.45
2018-06-24T01:19:44.215Z,13.41
2018-06-24T01:22:12.974Z,13.34
2018-06-24T01:24:41.702Z,13.38
2018-06-24T01:27:10.473Z,13.31
2018-06-24T01:29:39.185Z,13.30
2018-06-24T01:32:07.940Z,13.30
2018-06-24T01:34:36.652Z,13.27
2018-06-24T01:37:05.372Z,13.23
2018-06-24T01:39:34.084Z,13.26
2018-06-24T01:42:02.794Z,13.21
2018-06-24T01:44:31.571Z,13.27
2018-06-24T01:47:00.305Z,13.30
2018-06-24T01:49:29.075Z,13.25
2018-06-24T01:51:57.855Z,13.24
2018-06-24T01:54:26.626Z,13.23
2018-06-24T01:56:55.312Z,13.24
2018-06-24T01:59:24.150Z,13.27
2018-06-24T02:01:53.119Z,13.24
2018-06-24T02:04:22.069Z,13.23
2018-06-24T02:06:51.036Z,13.18
2018-06-24T02:09:19.831Z,13.16
2018-06-24T02:11:48.532Z,13.16
2018-06-24T02:14:17.272Z,13.14
2018-06-24T02:16:46.048Z,13.08
2018-06-24T02:19:14.763Z,13.06
2018-06-24T02:21:43.483Z,12.98
2018-06-24T02:24:12.184Z,13.01
2018-06-24T02:26:40.903Z,12.92
2018-06-24T02:29:09.651Z,12.98
2018-06-24T02:31:38.401Z,12.96
2018-06-24T02:34:07.182Z,12.94
2018-06-24T02:36:35.922Z,12.87
2018-06-24T02:39:06.630Z,12.87
2018-06-24T02:41:35.428Z,12.84
2018-06-24T02:44:04.572Z,12.79
2018-06-24T02:46:33.367Z,12.83
2018-06-24T02:49:02.110Z,12.89
2018-06-24T02:51:30.898Z,12.89
2018-06-24T02:53:59.619Z,12.90
2018-06-24T02:56:28.381Z,12.86
2018-06-24T02:58:57.136Z,12.83
2018-06-24T03:01:25.894Z,12.84
2018-06-24T03:03:54.712Z,12.80
2018-06-24T03:06:23.415Z,12.86
2018-06-24T03:08:52.113Z,12.87
2018-06-24T03:11:20.802Z,12.84
2018-06-24T03:13:49.515Z,12.83
2018-06-24T03:16:18.245Z,12.88
2018-06-24T03:18:46.923Z,12.90
2018-06-24T03:21:15.715Z,12.86
2018-06-24T03:23:44.434Z,12.89
2018-06-24T03:26:13.218Z,12.98
2018-06-24T03:28:41.958Z,12.98
2018-06-24T03:31:10.755Z,12.97
2018-06-24T03:33:39.584Z,13.00
2018-06-24T03:36:08.411Z,13.01
2018-06-24T03:38:37.142Z,13.00
2018-06-24T03:41:05.969Z,13.02
2018-06-24T03:43:34.712Z,13.07
2018-06-24T03:46:03.415Z,13.11
2018-06-24T03:48:32.115Z,13.09
2018-06-24T03:51:00.814Z,13.14
2018-06-24T03:53:29.520Z,13.16
2018-06-24T03:55:58.230Z,13.23
2018-06-24T03:58:26.923Z,13.33
2018-06-24T04:00:55.652Z,13.39
2018-06-24T04:03:24.436Z,13.48
2018-06-24T04:05:53.191Z,13.52
2018-06-24T04:08:21.943Z,13.54
2018-06-24T04:10:50.660Z,13.51
2018-06-24T04:13:19.447Z,13.51
2018-06-24T04:15:48.182Z,13.50
2018-06-24T04:18:16.943Z,13.44
2018-06-24T04:20:45.823Z,13.48
2018-06-24T04:23:14.686Z,13.49
2018-06-24T04:25:43.477Z,13.58
2018-06-24T04:28:12.324Z,13.66
2018-06-24T04:30:41.102Z,13.70
2018-06-24T04:33:09.855Z,13.69
2018-06-24T04:35:38.556Z,13.73
2018-06-24T04:38:07.267Z,13.71
2018-06-24T04:40:36.042Z,13.77
2018-06-24T04:43:04.778Z,13.78
2018-06-24T04:45:33.526Z,13.89
2018-06-24T04:48:02.200Z,14.16
2018-06-24T04:50:31.134Z,14.61
2018-06-24T04:52:59.834Z,15.61
2018-06-24T04:55:28.635Z,16.99
2018-06-24T04:57:57.347Z,17.97
2018-06-24T05:00:26.116Z,19.06
2018-06-24T05:02:54.807Z,19.78
2018-06-24T05:05:23.512Z,20.11
2018-06-24T05:07:52.270Z,20.33
2018-06-24T05:10:20.996Z,20.59
2018-06-24T05:12:49.666Z,20.85
2018-06-24T05:15:18.435Z,21.26
2018-06-24T05:17:47.147Z,21.68
2018-06-24T05:20:15.943Z,21.72
2018-06-24T05:22:44.727Z,22.12
2018-06-24T05:25:13.476Z,22.08
2018-06-24T05:27:42.232Z,22.17
2018-06-24T05:30:11.026Z,22.38
2018-06-24T05:32:39.766Z,22.45
2018-06-24T05:35:08.929Z,22.48
2018-06-24T05:41:04.394Z,22.19
2018-06-24T05:43:33.127Z,22.74
2018-06-24T05:46:01.861Z,22.81
2018-06-24T05:48:30.612Z,22.49
2018-06-24T05:50:59.359Z,22.47
2018-06-24T05:53:28.094Z,22.48
2018-06-24T05:55:57.168Z,22.64
2018-06-24T05:58:25.971Z,22.44
2018-06-24T06:00:55.153Z,22.61
2018-06-24T06:03:24.366Z,22.04
2018-06-24T06:05:53.127Z,21.85
2018-06-24T06:08:21.845Z,21.32
2018-06-24T06:10:50.582Z,20.18
2018-06-24T06:13:19.263Z,19.88
2018-06-24T06:15:48.034Z,19.75
2018-06-24T06:18:17.825Z,19.50
2018-06-24T06:20:46.631Z,19.49
2018-06-24T06:23:15.352Z,19.37
2018-06-24T06:25:44.436Z,19.34
2018-06-24T06:28:13.183Z,19.36
2018-06-24T06:30:42.061Z,19.19
2018-06-24T06:33:10.768Z,18.88
2018-06-24T06:35:39.480Z,18.95
2018-06-24T06:38:08.617Z,18.59
2018-06-24T06:40:37.319Z,18.60
2018-06-24T06:43:06.218Z,18.13
2018-06-24T06:45:35.037Z,18.14
2018-06-24T06:48:04.196Z,18.11
2018-06-24T06:50:32.910Z,17.99
2018-06-24T06:53:01.712Z,17.88
2018-06-24T06:55:30.476Z,17.71
2018-06-24T06:57:59.190Z,17.86
2018-06-24T07:00:27.965Z,17.68
2018-06-24T07:02:56.736Z,17.63
2018-06-24T07:05:25.493Z,17.66
2018-06-24T07:07:54.199Z,17.79
2018-06-24T07:10:22.994Z,17.76
2018-06-24T07:12:53.395Z,17.70
2018-06-24T07:15:22.215Z,17.63
2018-06-24T07:17:50.925Z,17.55
2018-06-24T07:20:19.663Z,17.60
2018-06-24T07:22:48.363Z,17.62
2018-06-24T07:25:17.154Z,17.74
2018-06-24T07:27:45.926Z,17.66
2018-06-24T07:30:14.870Z,17.75
2018-06-24T07:32:43.573Z,17.70
2018-06-24T07:35:12.360Z,17.75
2018-06-24T07:37:41.083Z,17.87
2018-06-24T07:40:09.803Z,17.98
2018-06-24T07:42:38.514Z,18.11
2018-06-24T07:45:07.222Z,18.16
2018-06-24T07:47:35.926Z,18.19
2018-06-24T07:50:05.128Z,18.31
2018-06-24T07:52:33.777Z,18.73
2018-06-24T07:55:02.529Z,18.95
2018-06-24T07:57:31.486Z,19.15
2018-06-24T08:00:00.250Z,19.68
2018-06-24T08:02:28.982Z,19.92
2018-06-24T08:04:57.714Z,19.81
2018-06-24T08:07:26.475Z,19.54
2018-06-24T08:09:55.190Z,19.36
2018-06-24T08:12:23.965Z,19.21
2018-06-24T08:14:52.654Z,19.36
2018-06-24T08:17:21.610Z,19.25
2018-06-24T08:19:50.415Z,19.43
2018-06-24T08:22:19.144Z,19.58
2018-06-24T08:24:47.864Z,19.54
2018-06-24T08:27:16.749Z,19.25
2018-06-24T08:29:45.528Z,19.00
2018-06-24T08:32:14.373Z,18.86
2018-06-24T08:34:43.111Z,18.85
2018-06-24T08:37:12.255Z,18.94
2018-06-24T08:39:41.220Z,19.18
2018-06-24T08:42:10.015Z,19.24
2018-06-24T08:44:38.726Z,19.45
2018-06-24T08:47:07.838Z,19.55
2018-06-24T08:49:36.771Z,19.70
2018-06-24T08:52:05.707Z,19.72
2018-06-24T08:54:34.408Z,19.77
2018-06-24T08:57:03.063Z,19.81
2018-06-24T08:59:31.842Z,19.78
2018-06-24T09:02:00.577Z,19.87
2018-06-24T09:04:29.367Z,19.80
2018-06-24T09:06:58.126Z,19.71
2018-06-24T09:09:27.085Z,19.73
2018-06-24T09:11:55.941Z,19.74
2018-06-24T09:14:24.719Z,19.53
2018-06-24T09:16:53.500Z,19.33
2018-06-24T09:19:22.288Z,19.49
2018-06-24T09:21:50.995Z,19.37
2018-06-24T09:24:19.729Z,19.54
2018-06-24T09:26:48.440Z,19.80
2018-06-24T09:29:17.126Z,19.92
2018-06-24T09:31:46.247Z,19.95
2018-06-24T09:34:14.993Z,20.17
2018-06-24T09:36:43.939Z,20.16
2018-06-24T09:39:13.503Z,20.13
2018-06-24T09:41:42.280Z,19.93
2018-06-24T09:44:11.083Z,19.80
2018-06-24T09:46:39.850Z,19.91
2018-06-24T09:49:08.585Z,20.02
2018-06-24T09:51:37.430Z,19.99
2018-06-24T09:54:06.513Z,19.74
2018-06-24T09:56:35.649Z,19.58
2018-06-24T09:59:04.426Z,19.39
2018-06-24T10:01:33.204Z,19.42
2018-06-24T10:04:02.244Z,19.55
2018-06-24T10:06:32.735Z,19.77
2018-06-24T10:09:01.592Z,20.00
2018-06-24T10:11:30.766Z,20.17
2018-06-24T10:13:59.650Z,20.56
2018-06-24T10:16:28.796Z,20.69
2018-06-24T10:18:57.570Z,20.82
2018-06-24T10:21:26.765Z,20.89
2018-06-24T10:23:55.789Z,20.58
2018-06-24T10:26:25.027Z,20.45
2018-06-24T10:28:53.963Z,20.42
2018-06-24T10:31:22.909Z,20.32
2018-06-24T10:33:59.066Z,20.24
2018-06-24T10:36:27.933Z,20.27
2018-06-24T10:38:56.827Z,20.33
2018-06-24T10:41:26.331Z,20.55
2018-06-24T10:43:55.091Z,20.77
2018-06-24T10:46:24.469Z,20.79
2018-06-24T10:48:53.215Z,20.71
2018-06-24T10:51:21.961Z,20.77
2018-06-24T10:53:50.875Z,20.81
2018-06-24T10:56:19.595Z,20.86
2018-06-24T10:58:48.420Z,20.94
2018-06-24T11:01:17.167Z,21.02
2018-06-24T11:03:45.926Z,21.08
2018-06-24T11:06:14.707Z,20.96
2018-06-24T11:08:43.536Z,20.88
2018-06-24T11:11:13.303Z,20.97
2018-06-24T11:13:48.587Z,21.17
2018-06-24T11:16:17.415Z,21.22
2018-06-24T11:18:46.130Z,21.11
2018-06-24T11:21:14.916Z,20.90
2018-06-24T11:23:43.666Z,20.85
2018-06-24T11:26:12.426Z,20.76
2018-06-24T11:28:41.117Z,20.73
2018-06-24T11:31:10.075Z,20.68
2018-06-24T11:33:38.836Z,20.68
2018-06-24T11:36:07.542Z,20.75
2018-06-24T11:38:36.269Z,20.92
2018-06-24T11:41:05.092Z,21.32
2018-06-24T11:43:33.912Z,21.58
2018-06-24T11:46:02.706Z,21.70
2018-06-24T11:48:31.445Z,21.61
2018-06-24T11:51:00.307Z,21.48
2018-06-24T11:53:35.462Z,21.52
2018-06-24T11:56:04.713Z,21.37
2018-06-24T11:58:33.746Z,21.32
2018-06-24T12:01:02.848Z,21.19
2018-06-24T12:03:31.630Z,20.98
2018-06-24T12:06:00.354Z,21.03
2018-06-24T12:08:29.055Z,20.94
2018-06-24T12:10:57.767Z,21.04
2018-06-24T12:13:26.544Z,21.08
2018-06-24T12:15:55.328Z,21.08
2018-06-24T12:18:24.038Z,21.08
2018-06-24T12:20:53.045Z,21.10
2018-06-24T12:23:21.742Z,20.88
2018-06-24T12:25:50.542Z,20.72
2018-06-24T12:28:19.263Z,20.57
2018-06-24T12:30:48.060Z,20.46
2018-06-24T12:33:17.201Z,20.39
2018-06-24T12:35:45.955Z,20.42
2018-06-24T12:38:14.780Z,20.55
2018-06-24T12:40:43.473Z,20.57
2018-06-24T12:43:12.181Z,20.52
2018-06-24T12:45:41.278Z,20.61
2018-06-24T12:48:10.000Z,20.64
2018-06-24T12:50:38.761Z,20.77
2018-06-24T12:53:07.542Z,20.81
2018-06-24T12:55:36.324Z,20.89
2018-06-24T12:58:05.120Z,21.05
2018-06-24T13:00:35.572Z,21.12
2018-06-24T13:03:03.984Z,21.23
2018-06-24T13:05:33.154Z,21.37
2018-06-24T13:08:02.198Z,21.45
2018-06-24T13:10:30.929Z,21.37
2018-06-24T13:13:00.016Z,21.43
2018-06-24T13:15:28.827Z,21.54
2018-06-24T13:17:57.494Z,21.74
2018-06-24T13:20:26.317Z,21.73
2018-06-24T13:22:55.922Z,21.43
2018-06-24T13:25:25.090Z,21.29
2018-06-24T13:27:53.834Z,21.20
2018-06-24T13:30:22.927Z,21.15
2018-06-24T13:32:51.667Z,21.29
2018-06-24T13:35:20.387Z,21.44
2018-06-24T13:37:49.066Z,21.59
2018-06-24T13:40:17.831Z,21.80
2018-06-24T13:42:46.910Z,22.05
2018-06-24T13:45:15.738Z,22.10
2018-06-24T13:47:44.424Z,22.00
2018-06-24T13:50:13.248Z,22.10
2018-06-24T13:52:41.954Z,22.09
2018-06-24T13:55:10.737Z,22.16
2018-06-24T13:57:39.506Z,22.44
2018-06-24T14:00:08.400Z,22.56
2018-06-24T14:02:37.082Z,22.41
2018-06-24T14:05:06.265Z,22.31
2018-06-24T14:07:35.041Z,22.33
2018-06-24T14:10:04.176Z,22.30
2018-06-24T14:12:32.884Z,22.04
2018-06-24T14:15:01.642Z,21.79
2018-06-24T14:17:30.377Z,21.78
2018-06-24T14:19:59.438Z,21.67
2018-06-24T14:22:28.264Z,21.54
2018-06-24T14:24:57.754Z,21.57
2018-06-24T14:27:26.595Z,21.64
2018-06-24T14:29:55.359Z,21.66
2018-06-24T14:32:24.092Z,21.72
2018-06-24T14:34:52.871Z,21.72
2018-06-24T14:37:21.848Z,21.70
2018-06-24T14:39:50.688Z,21.85
2018-06-24T14:42:19.827Z,22.02
2018-06-24T14:44:48.552Z,21.84
2018-06-24T14:47:17.349Z,21.66
2018-06-24T14:49:46.290Z,21.90
2018-06-24T14:52:15.016Z,21.86
2018-06-24T14:54:43.802Z,21.91
2018-06-24T14:57:12.930Z,21.92
2018-06-24T14:59:41.887Z,21.82
2018-06-24T15:02:10.630Z,21.85
2018-06-24T15:04:39.326Z,21.92
2018-06-24T15:07:08.238Z,22.10
2018-06-24T15:09:36.934Z,22.05
2018-06-24T15:12:05.747Z,21.98
2018-06-24T15:14:34.565Z,21.92
2018-06-24T15:17:03.313Z,21.93
2018-06-24T15:19:32.088Z,21.90
2018-06-24T15:22:00.830Z,21.80
2018-06-24T15:24:29.629Z,21.86
2018-06-24T15:26:58.456Z,21.86
2018-06-24T15:29:27.249Z,21.90
2018-06-24T15:31:56.060Z,22.15
2018-06-24T15:34:25.592Z,22.18
2018-06-24T15:36:54.639Z,22.15
2018-06-24T15:39:25.883Z,22.03
2018-06-24T15:41:54.751Z,21.93
2018-06-24T15:44:23.495Z,21.97
2018-06-24T15:46:53.351Z,22.06
2018-06-24T15:49:22.827Z,22.01
2018-06-24T15:51:51.558Z,22.01
2018-06-24T15:54:20.279Z,21.83
2018-06-24T15:56:49.451Z,21.71
2018-06-24T15:59:18.881Z,21.64
2018-06-24T16:01:47.626Z,21.43
2018-06-24T16:04:16.345Z,21.48
2018-06-24T16:06:45.222Z,21.48
2018-06-24T16:09:14.059Z,21.58
2018-06-24T16:11:42.780Z,21.56
2018-06-24T16:14:11.579Z,21.46
2018-06-24T16:16:40.757Z,21.59
2018-06-24T16:19:09.914Z,21.75
2018-06-24T16:21:38.659Z,21.80
2018-06-24T16:24:07.378Z,21.70
2018-06-24T16:26:36.089Z,21.72
2018-06-24T16:29:04.922Z,21.50
2018-06-24T16:31:33.667Z,21.42
2018-06-24T16:34:02.445Z,21.33
2018-06-24T16:36:31.208Z,20.81
2018-06-24T16:39:00.029Z,20.66
2018-06-24T16:41:28.780Z,20.49
2018-06-24T16:43:57.474Z,20.57
2018-06-24T16:46:26.289Z,20.60
2018-06-24T16:48:55.036Z,20.59
2018-06-24T16:51:23.755Z,20.51
2018-06-24T16:53:52.487Z,20.52
2018-06-24T16:56:21.219Z,20.29
2018-06-24T16:58:49.927Z,20.14
2018-06-24T17:01:18.660Z,20.21
2018-06-24T17:03:47.374Z,19.93
2018-06-24T17:06:16.289Z,19.88
2018-06-24T17:08:45.682Z,19.75
2018-06-24T17:11:14.470Z,19.49
2018-06-24T17:13:43.182Z,19.53
2018-06-24T17:16:11.940Z,19.58
2018-06-24T17:18:40.777Z,19.60
2018-06-24T17:21:09.869Z,19.47
2018-06-24T17:23:38.714Z,19.54
2018-06-24T17:26:07.600Z,19.54
2018-06-24T17:28:36.317Z,19.53
2018-06-24T17:31:05.113Z,19.51
2018-06-24T17:33:34.169Z,19.49
2018-06-24T17:36:02.881Z,19.27
2018-06-24T17:38:31.758Z,19.24
2018-06-24T17:41:00.553Z,19.09
2018-06-24T17:43:29.218Z,19.05
2018-06-24T17:45:58.044Z,18.91
2018-06-24T17:48:26.931Z,18.90
2018-06-24T17:50:55.654Z,18.92
2018-06-24T17:53:24.496Z,18.94
2018-06-24T17:55:53.500Z,18.93
2018-06-24T17:58:22.380Z,18.98
2018-06-24T18:00:51.124Z,18.94
2018-06-24T18:03:20.403Z,18.93
2018-06-24T18:05:49.116Z,18.82
2018-06-24T18:08:17.935Z,18.59
2018-06-24T18:10:46.981Z,18.58
2018-06-24T18:13:15.708Z,18.61
2018-06-24T18:15:44.461Z,18.58
2018-06-24T18:18:13.185Z,18.58
2018-06-24T18:20:41.886Z,18.67
2018-06-24T18:23:10.627Z,18.73
2018-06-24T18:25:39.343Z,18.72
2018-06-24T18:28:08.164Z,18.73
2018-06-24T18:30:37.078Z,18.79
2018-06-24T18:33:06.291Z,18.79
2018-06-24T18:35:35.207Z,18.79
2018-06-24T18:38:04.606Z,18.72
2018-06-24T18:40:33.348Z,18.68
2018-06-24T18:43:02.113Z,18.63
2018-06-24T18:45:31.021Z,18.54
2018-06-24T18:47:59.805Z,18.58
2018-06-24T18:50:28.523Z,18.57
2018-06-24T18:52:57.919Z,18.54
2018-06-24T18:55:26.672Z,18.58
2018-06-24T18:57:55.751Z,18.55
2018-06-24T19:00:24.548Z,18.54
2018-06-24T19:02:53.440Z,18.44
2018-06-24T19:05:22.432Z,18.49
2018-06-24T19:07:51.507Z,18.47
2018-06-24T19:10:20.341Z,18.47
2018-06-24T19:12:49.219Z,18.47
2018-06-24T19:15:18.080Z,18.48
2018-06-24T19:17:46.893Z,18.44
2018-06-24T19:20:16.028Z,18.45
2018-06-24T19:22:44.746Z,18.40
2018-06-24T19:25:13.549Z,18.39
2018-06-24T19:27:42.365Z,18.34
2018-06-24T19:30:11.140Z,18.35
2018-06-24T19:32:40.880Z,18.30
2018-06-24T19:35:09.751Z,18.35
2018-06-24T19:37:38.480Z,18.34
2018-06-24T19:40:13.781Z,18.32
2018-06-24T19:42:42.940Z,18.32
2018-06-24T19:45:11.704Z,18.31
2018-06-24T19:47:40.410Z,18.28
2018-06-24T19:50:09.406Z,18.33
2018-06-24T19:52:38.182Z,18.29
2018-06-24T19:55:07.051Z,18.24
2018-06-24T19:57:35.826Z,18.23
2018-06-24T20:00:06.233Z,18.24
2018-06-24T20:02:34.978Z,18.20
2018-06-24T20:05:03.768Z,18.14
2018-06-24T20:07:32.611Z,18.13
2018-06-24T20:10:01.355Z,18.16
2018-06-24T20:12:30.138Z,18.13
2018-06-24T20:14:58.843Z,18.14
2018-06-24T20:17:27.534Z,18.12
2018-06-24T20:19:56.321Z,18.08
2018-06-24T20:22:25.116Z,17.98
2018-06-24T20:24:53.845Z,17.96
2018-06-24T20:27:24.262Z,17.91
2018-06-24T20:29:53.141Z,17.85
2018-06-24T20:32:21.857Z,17.81
2018-06-24T20:34:50.627Z,17.77
2018-06-24T20:37:19.403Z,17.81
2018-06-24T20:39:48.110Z,17.84
2018-06-24T20:42:16.823Z,17.76
2018-06-24T20:44:45.561Z,17.76
2018-06-24T20:47:14.252Z,17.71
2018-06-24T20:49:42.978Z,17.69
2018-06-24T20:52:12.328Z,17.65
2018-06-24T20:54:41.604Z,17.66
2018-06-24T20:57:10.362Z,17.60
2018-06-24T20:59:39.111Z,17.60
2018-06-24T21:02:08.929Z,17.60
2018-06-24T21:04:37.722Z,17.58
2018-06-24T21:07:06.462Z,17.60
2018-06-24T21:09:35.196Z,17.60
2018-06-24T21:12:03.906Z,17.59
2018-06-24T21:14:32.655Z,17.54
2018-06-24T21:17:01.473Z,17.47
2018-06-24T21:19:30.174Z,17.43
2018-06-24T21:21:58.877Z,17.35
2018-06-24T21:24:32.969Z,17.29
2018-06-24T21:27:01.854Z,17.24
2018-06-24T21:29:30.575Z,17.22
2018-06-24T21:31:59.274Z,17.16
2018-06-24T21:34:28.062Z,17.14
2018-06-24T21:36:56.974Z,17.11
2018-06-24T21:39:26.024Z,17.03
2018-06-24T21:41:54.875Z,16.86
2018-06-24T21:44:23.610Z,16.69
2018-06-24T21:46:52.364Z,16.69
2018-06-24T21:49:21.422Z,16.62
2018-06-24T21:51:50.552Z,16.60
2018-06-24T21:54:19.501Z,16.57
2018-06-24T21:56:51.354Z,16.53
2018-06-24T21:59:20.208Z,16.50
2018-06-24T22:01:48.926Z,16.54
2018-06-24T22:04:17.752Z,16.50
2018-06-24T22:06:46.579Z,16.48
2018-06-24T22:09:15.393Z,16.48
2018-06-24T22:11:44.144Z,16.52
2018-06-24T22:14:12.862Z,16.48
2018-06-24T22:16:41.588Z,16.32
2018-06-24T22:19:10.559Z,16.25
2018-06-24T22:21:39.483Z,16.26
2018-06-24T22:24:08.291Z,16.27
2018-06-24T22:26:37.031Z,16.29
2018-06-24T22:29:06.763Z,16.18
2018-06-24T22:31:35.743Z,16.20
2018-06-24T22:34:04.477Z,16.24
2018-06-24T22:36:33.572Z,16.15
2018-06-24T22:39:02.516Z,16.13
2018-06-24T22:41:31.658Z,16.11
2018-06-24T22:44:00.383Z,16.11
2018-06-24T22:46:29.116Z,16.14
2018-06-24T22:48:57.834Z,16.19
2018-06-24T22:51:26.591Z,16.24
2018-06-24T22:53:55.315Z,16.25
2018-06-24T22:56:24.094Z,16.26
2018-06-24T22:59:04.259Z,16.26
2018-06-24T23:01:33.619Z,16.18
2018-06-24T23:04:02.305Z,16.15
2018-06-24T23:06:31.044Z,16.16
2018-06-24T23:08:59.823Z,16.14
2018-06-24T23:11:28.527Z,16.18
2018-06-24T23:13:57.283Z,16.20
2018-06-24T23:16:26.074Z,16.19
2018-06-24T23:18:55.117Z,16.20
2018-06-24T23:21:23.840Z,16.16
2018-06-24T23:23:52.653Z,16.14
2018-06-24T23:26:21.726Z,16.14
2018-06-24T23:28:50.464Z,16.13
2018-06-24T23:31:19.342Z,16.17
2018-06-24T23:33:48.577Z,16.18
2018-06-24T23:36:17.300Z,16.23
2018-06-24T23:38:46.031Z,16.24
2018-06-24T23:41:14.735Z,16.28
2018-06-24T23:43:43.541Z,16.30
2018-06-24T23:46:12.308Z,16.25
2018-06-24T23:48:41.143Z,16.22
2018-06-24T23:51:09.856Z,16.12
2018-06-24T23:53:38.553Z,16.14
2018-06-24T23:56:07.317Z,16.18
2018-06-24T23:58:36.061Z,16.19
